Time;durP1;ratioP1;P1;durP2;ratioP2;P2;SDS_P1;SDS_P2;PMS_P1;PMS_P2;Temp;Humidity;BMP_temperature;BMP_pressure;BME280_temperature;BME280_humidity;BME280_pressure;Samples;Min_cycle;Max_cycle;Signal;HPM_P1;HPM_P2
2021/04/12 00:00:08;;;;;;;1.83;1.73;;;2.10;99.90;;;;;;4994678;28;20065;-82
2021/04/12 00:02:42;;;;;;;1.55;1.55;;;2.10;99.90;;;;;;5009737;28;20050;-83
2021/04/12 00:05:23;;;;;;;1.73;1.63;;;2.00;99.90;;;;;;4994896;28;20043;-83
2021/04/12 00:08:08;;;;;;;2.00;1.90;;;1.90;99.90;;;;;;5009687;28;20046;-82
2021/04/12 00:11:00;;;;;;;1.70;1.60;;;1.90;99.90;;;;;;5009887;28;20089;-82
2021/04/12 00:13:44;;;;;;;3.05;1.40;;;1.80;99.90;;;;;;4991799;28;20388;-81
2021/04/12 00:16:25;;;;;;;1.92;1.83;;;1.70;99.90;;;;;;4994329;28;20565;-81
2021/04/12 00:19:26;;;;;;;1.60;1.50;;;1.70;99.90;;;;;;4994424;28;20054;-81
2021/04/12 00:22:14;;;;;;;1.98;1.88;;;1.70;99.90;;;;;;5009525;28;20097;-81
2021/04/12 00:24:46;;;;;;;1.50;1.50;;;1.70;99.90;;;;;;4994197;28;20046;-82
2021/04/12 00:27:26;;;;;;;1.65;1.55;;;1.70;99.90;;;;;;5009318;28;20141;-81
2021/04/12 00:30:13;;;;;;;1.90;1.80;;;1.70;99.90;;;;;;4994133;28;20494;-82
2021/04/12 00:33:29;;;;;;;1.85;1.75;;;1.70;99.90;;;;;;4993969;28;20085;-81
2021/04/12 00:36:16;;;;;;;1.65;1.58;;;1.70;99.90;;;;;;4937337;29;20133;-81
2021/04/12 00:38:56;;;;;;;1.77;1.67;;;1.80;99.90;;;;;;4953150;28;20409;-82
2021/04/12 00:42:06;;;;;;;1.98;1.83;;;1.70;99.90;;;;;;4985367;28;20137;-81
2021/04/12 00:45:01;;;;;;;1.90;1.80;;;1.70;99.90;;;;;;4947360;28;20046;-82
2021/04/12 00:47:40;;;;;;;2.15;1.52;;;1.80;99.90;;;;;;5008931;28;20088;-82
2021/04/12 00:50:24;;;;;;;1.90;1.80;;;1.80;99.90;;;;;;5009004;28;20206;-82
2021/04/12 00:53:28;;;;;;;2.05;1.95;;;1.80;99.90;;;;;;5008617;28;20058;-82
2021/04/12 00:56:09;;;;;;;2.33;2.15;;;1.80;99.90;;;;;;4994016;28;20128;-82
2021/04/12 00:58:51;;;;;;;2.05;1.95;;;1.90;99.90;;;;;;4993657;28;20050;-82
2021/04/12 01:01:27;;;;;;;1.80;1.70;;;1.90;99.90;;;;;;5008622;28;20090;-81
2021/04/12 01:04:20;;;;;;;1.90;1.80;;;1.80;99.90;;;;;;5008817;28;20057;-82
2021/04/12 01:07:14;;;;;;;1.80;1.70;;;1.80;99.90;;;;;;4993836;28;20081;-81
2021/04/12 01:09:54;;;;;;;2.00;1.90;;;1.70;99.90;;;;;;4993811;28;20444;-81
2021/04/12 01:12:58;;;;;;;1.90;1.80;;;1.70;99.90;;;;;;5008514;28;20298;-81
2021/04/12 01:16:03;;;;;;;6.75;2.13;;;1.60;99.90;;;;;;5008553;28;20134;-81
2021/04/12 01:19:07;;;;;;;2.63;1.65;;;1.50;99.90;;;;;;4976991;28;20085;-81
2021/04/12 01:21:33;;;;;;;1.77;1.67;;;1.40;99.90;;;;;;4993321;28;20129;-81
2021/04/12 01:24:21;;;;;;;2.05;1.95;;;1.40;99.90;;;;;;4993468;28;20144;-82
2021/04/12 01:27:14;;;;;;;1.88;1.77;;;1.30;99.90;;;;;;4993421;28;20130;-81
2021/04/12 01:29:59;;;;;;;1.90;1.48;;;1.30;99.90;;;;;;4993643;28;20047;-82
2021/04/12 01:32:45;;;;;;;1.48;1.48;;;1.20;99.90;;;;;;5008483;28;20101;-82
2021/04/12 01:35:36;;;;;;;2.05;1.90;;;1.20;99.90;;;;;;5008572;28;20078;-83
2021/04/12 01:38:24;;;;;;;2.42;1.75;;;1.10;99.90;;;;;;5008312;28;20583;-83
2021/04/12 01:41:21;;;;;;;3.40;1.80;;;1.00;99.90;;;;;;4993596;28;20046;-84
2021/04/12 01:43:57;;;;;;;1.60;1.50;;;1.00;99.90;;;;;;4993642;28;20145;-84
2021/04/12 01:46:35;;;;;;;1.80;1.70;;;1.00;99.90;;;;;;5008632;28;20082;-84
2021/04/12 01:49:30;;;;;;;2.40;2.20;;;1.10;99.90;;;;;;4993535;28;20057;-85
2021/04/12 01:52:20;;;;;;;3.05;1.98;;;1.00;99.90;;;;;;5008697;28;20050;-84
2021/04/12 01:55:01;;;;;;;1.77;1.67;;;1.00;99.90;;;;;;4993708;28;20503;-84
2021/04/12 01:57:41;;;;;;;1.58;1.48;;;1.00;99.90;;;;;;5008353;28;20504;-84
2021/04/12 02:00:17;;;;;;;1.30;1.30;;;1.00;99.90;;;;;;5008143;28;20104;-84
2021/04/12 02:03:06;;;;;;;1.02;1.02;;;1.10;99.90;;;;;;4993019;28;20189;-83
2021/04/12 02:05:58;;;;;;;1.67;1.58;;;1.10;99.90;;;;;;4993114;28;20129;-83
2021/04/12 02:08:28;;;;;;;1.85;1.75;;;1.00;99.90;;;;;;5011036;28;20070;-83
2021/04/12 02:11:00;;;;;;;2.30;2.10;;;1.00;99.90;;;;;;5011928;28;20054;-83
2021/04/12 02:13:45;;;;;;;2.00;1.80;;;1.00;99.90;;;;;;5011909;28;20499;-83
2021/04/12 02:16:36;;;;;;;2.53;2.33;;;1.10;99.90;;;;;;5011849;28;20470;-83
2021/04/12 02:19:21;;;;;;;2.15;2.05;;;1.10;99.90;;;;;;5011807;28;20145;-82
2021/04/12 02:21:58;;;;;;;2.05;1.95;;;1.10;99.90;;;;;;5011870;28;20077;-83
2021/04/12 02:24:50;;;;;;;3.28;2.35;;;1.00;99.90;;;;;;4996618;28;20061;-82
2021/04/12 02:27:33;;;;;;;2.50;2.35;;;1.00;99.90;;;;;;4996314;28;20610;-82
2021/04/12 02:30:19;;;;;;;2.97;2.70;;;1.10;99.90;;;;;;5011705;28;20046;-83
2021/04/12 02:33:17;;;;;;;3.15;2.40;;;1.00;99.90;;;;;;5011970;28;20081;-83
2021/04/12 02:36:13;;;;;;;3.03;2.80;;;1.00;99.90;;;;;;4996478;28;20046;-83
2021/04/12 02:38:57;;;;;;;3.55;3.25;;;1.00;99.90;;;;;;5011454;28;20166;-83
2021/04/12 02:41:41;;;;;;;;;;;1.00;99.90;;;;;;4996624;28;20069;-82
2021/04/12 02:44:21;;;;;;;4.55;3.78;;;1.10;99.90;;;;;;4994852;28;20407;-82
2021/04/12 02:47:20;;;;;;;4.32;3.92;;;1.10;99.90;;;;;;5011200;28;20553;-82
2021/04/12 02:50:16;;;;;;;6.32;4.32;;;1.10;99.90;;;;;;4996336;28;20054;-82
2021/04/12 02:52:53;;;;;;;4.65;4.15;;;1.10;99.90;;;;;;5011072;28;20538;-82
2021/04/12 02:55:47;;;;;;;4.85;4.20;;;1.10;99.90;;;;;;5011145;28;20085;-82
2021/04/12 02:58:30;;;;;;;7.10;5.15;;;1.10;99.90;;;;;;4995663;28;20062;-82
2021/04/12 03:01:16;;;;;;;6.43;5.20;;;1.20;99.90;;;;;;5010965;28;20074;-81
2021/04/12 03:04:00;;;;;;;5.00;4.47;;;1.20;99.90;;;;;;4995974;28;20047;-81
2021/04/12 03:06:45;;;;;;;4.70;3.97;;;1.20;99.90;;;;;;5010863;28;20057;-81
2021/04/12 03:09:38;;;;;;;5.05;4.55;;;1.20;99.90;;;;;;5010832;28;20136;-81
2021/04/12 03:12:16;;;;;;;5.88;4.53;;;1.20;99.90;;;;;;4995496;28;20056;-81
2021/04/12 03:14:58;;;;;;;5.00;4.25;;;1.10;99.90;;;;;;5010837;28;20438;-81
2021/04/12 03:17:53;;;;;;;5.95;5.00;;;1.20;99.90;;;;;;5010352;28;20133;-81
2021/04/12 03:20:45;;;;;;;5.07;4.55;;;1.30;99.90;;;;;;4994582;28;20046;-82
2021/04/12 03:23:39;;;;;;;5.32;4.82;;;1.30;99.90;;;;;;4995396;28;20125;-81
2021/04/12 03:26:44;;;;;;;5.15;4.65;;;1.30;99.90;;;;;;5010486;28;20502;-81
2021/04/12 03:29:15;;;;;;;5.75;4.90;;;1.30;99.90;;;;;;4986400;28;20067;-81
2021/04/12 03:32:16;;;;;;;4.82;4.38;;;1.20;99.90;;;;;;4995482;28;20462;-81
2021/04/12 03:35:14;;;;;;;6.13;4.88;;;1.30;99.90;;;;;;4995472;28;20287;-81
2021/04/12 03:38:13;;;;;;;4.82;4.15;;;1.20;99.90;;;;;;5010334;28;20402;-81
2021/04/12 03:40:42;;;;;;;4.50;4.07;;;1.30;99.90;;;;;;4995424;28;20084;-80
2021/04/12 03:43:40;;;;;;;7.32;5.30;;;1.20;99.90;;;;;;4995154;28;20161;-81
2021/04/12 03:46:12;;;;;;;5.88;4.80;;;1.20;99.90;;;;;;4995003;28;20053;-80
2021/04/12 03:49:07;;;;;;;8.20;5.63;;;1.20;99.90;;;;;;5010086;28;20056;-80
2021/04/12 03:51:48;;;;;;;;;;;1.20;99.90;;;;;;4995456;28;20133;-80
2021/04/12 03:54:45;;;;;;;7.53;5.93;;;1.20;99.90;;;;;;4995021;28;19971;-80
2021/04/12 03:57:17;;;;;;;11.98;8.43;;;1.30;99.90;;;;;;4994802;28;20126;-81
2021/04/12 04:00:14;;;;;;;6.95;5.55;;;1.30;99.90;;;;;;4994747;28;20056;-81
2021/04/12 04:03:10;;;;;;;11.50;7.50;;;1.20;99.90;;;;;;5009945;28;20043;-82
2021/04/12 04:06:12;;;;;;;13.98;9.48;;;1.20;99.90;;;;;;4994779;28;20487;-81
2021/04/12 04:09:04;;;;;;;14.35;9.27;;;1.30;99.90;;;;;;5009570;28;20062;-81
2021/04/12 04:11:59;;;;;;;8.77;6.72;;;1.30;99.90;;;;;;4994080;28;20547;-81
2021/04/12 04:14:52;;;;;;;14.77;9.55;;;1.30;99.90;;;;;;5009340;28;20046;-82
2021/04/12 04:17:29;;;;;;;9.95;8.10;;;1.30;99.90;;;;;;4994282;28;20047;-82
2021/04/12 04:20:16;;;;;;;16.35;10.02;;;1.20;99.90;;;;;;5009246;28;20077;-82
2021/04/12 04:23:16;;;;;;;17.50;10.40;;;1.20;99.90;;;;;;4993980;28;20054;-81
2021/04/12 04:26:20;;;;;;;15.13;9.15;;;1.20;99.90;;;;;;4994191;28;20046;-81
2021/04/12 04:29:07;;;;;;;16.15;11.02;;;1.20;99.90;;;;;;4994076;28;20056;-82
2021/04/12 04:32:05;;;;;;;16.45;10.45;;;1.20;99.90;;;;;;5008830;28;20133;-81
2021/04/12 04:35:07;;;;;;;24.98;13.07;;;1.20;99.90;;;;;;4994063;28;20120;-81
2021/04/12 04:37:57;;;;;;;24.50;14.25;;;1.20;99.90;;;;;;5008995;28;20049;-82
2021/04/12 04:40:26;;;;;;;24.13;13.23;;;1.30;99.90;;;;;;4993643;28;20133;-81
2021/04/12 04:43:18;;;;;;;27.30;13.30;;;1.30;99.90;;;;;;4993526;28;20137;-82
2021/04/12 04:45:53;;;;;;;22.85;12.82;;;1.30;99.90;;;;;;4993716;28;20054;-81
2021/04/12 04:48:42;;;;;;;20.60;12.00;;;1.30;99.90;;;;;;4993636;28;20473;-82
2021/04/12 04:51:46;;;;;;;20.63;12.02;;;1.40;99.90;;;;;;4993693;28;20056;-81
2021/04/12 04:54:31;;;;;;;24.10;13.95;;;1.40;99.90;;;;;;4993643;28;20046;-81
2021/04/12 04:57:22;;;;;;;24.02;13.18;;;1.40;99.90;;;;;;4993627;28;20051;-82
2021/04/12 05:00:17;;;;;;;27.92;14.73;;;1.40;99.90;;;;;;4993624;28;20086;-82
2021/04/12 05:03:09;;;;;;;28.48;16.45;;;1.40;99.90;;;;;;5008634;28;20054;-82
2021/04/12 05:05:56;;;;;;;33.80;18.08;;;1.50;99.90;;;;;;4993502;28;20049;-81
2021/04/12 05:08:56;;;;;;;28.27;16.85;;;1.50;99.90;;;;;;5008654;28;20082;-82
2021/04/12 05:11:50;;;;;;;32.78;17.75;;;1.50;99.90;;;;;;5008726;28;20053;-82
2021/04/12 05:14:34;;;;;;;31.67;18.25;;;1.50;99.90;;;;;;4993518;28;20054;-82
2021/04/12 05:17:29;;;;;;;34.15;19.98;;;1.60;99.90;;;;;;4993560;28;20161;-82
2021/04/12 05:20:00;;;;;;;31.17;18.77;;;1.60;99.90;;;;;;5008619;28;20423;-82
2021/04/12 05:22:38;;;;;;;34.72;19.23;;;1.70;99.90;;;;;;4993257;28;20462;-82
2021/04/12 05:25:31;;;;;;;32.83;18.48;;;1.70;99.90;;;;;;4992632;28;20050;-82
2021/04/12 05:27:57;;;;;;;34.08;19.63;;;1.70;99.90;;;;;;5008310;28;20050;-82
2021/04/12 05:30:58;;;;;;;30.33;17.80;;;1.80;99.90;;;;;;4993125;28;20058;-82
2021/04/12 05:34:09;;;;;;;30.80;17.98;;;1.80;99.90;;;;;;4993297;28;20125;-82
2021/04/12 05:36:57;;;;;;;38.45;19.55;;;1.80;99.90;;;;;;4977170;28;20130;-82
2021/04/12 05:39:44;;;;;;;38.65;19.58;;;1.80;99.90;;;;;;5008362;28;20051;-82
2021/04/12 05:42:14;;;;;;;44.28;19.58;;;1.80;99.90;;;;;;4994172;28;20043;-82
2021/04/12 05:44:40;;;;;;;43.55;21.63;;;1.70;99.90;;;;;;4997430;28;20129;-82
2021/04/12 05:47:31;;;;;;;36.33;19.90;;;1.80;99.90;;;;;;4997167;28;20129;-80
2021/04/12 05:50:13;;;;;;;33.50;18.80;;;1.80;99.90;;;;;;4997269;28;20086;-82
2021/04/12 05:52:58;;;;;;;34.00;19.25;;;2.00;99.90;;;;;;4996999;28;20509;-82
2021/04/12 05:55:47;;;;;;;39.58;20.92;;;2.20;99.90;;;;;;5012107;28;20168;-83
2021/04/12 05:58:28;;;;;;;36.03;21.10;;;2.10;99.90;;;;;;4996764;28;20149;-82
2021/04/12 06:01:18;;;;;;;32.22;19.75;;;2.20;99.90;;;;;;4996836;28;20486;-83
2021/04/12 06:04:01;;;;;;;31.25;19.50;;;2.20;99.90;;;;;;5012186;28;20057;-82
2021/04/12 06:06:49;;;;;;;33.15;18.38;;;2.20;99.90;;;;;;4995699;28;20137;-83
2021/04/12 06:09:45;;;;;;;32.00;18.45;;;2.20;99.90;;;;;;4996567;28;20501;-83
2021/04/12 06:12:43;;;;;;;32.15;20.10;;;2.30;99.90;;;;;;5011606;28;20064;-83
2021/04/12 06:15:47;;;;;;;36.38;20.55;;;2.50;99.90;;;;;;4996715;28;20129;-83
2021/04/12 06:18:45;;;;;;;34.00;19.80;;;2.70;99.90;;;;;;4996451;28;20085;-82
2021/04/12 06:21:27;;;;;;;27.63;17.77;;;2.70;99.90;;;;;;4996583;28;20105;-83
2021/04/12 06:24:21;;;;;;;26.27;17.50;;;2.80;99.90;;;;;;4996582;28;20491;-83
2021/04/12 06:27:40;;;;;;;31.80;18.92;;;2.90;99.90;;;;;;5011746;28;20050;-83
2021/04/12 06:30:37;;;;;;;26.42;17.80;;;3.00;99.90;;;;;;4979984;28;20150;-83
2021/04/12 06:33:19;;;;;;;24.85;18.15;;;3.00;99.90;;;;;;4996368;28;20138;-82
2021/04/12 06:36:02;;;;;;;25.58;18.77;;;3.00;99.90;;;;;;5011812;28;20134;-83
2021/04/12 06:38:33;;;;;;;25.75;17.20;;;3.10;99.90;;;;;;5011201;28;20058;-83
2021/04/12 06:40:59;;;;;;;26.77;16.58;;;3.20;99.90;;;;;;4996400;28;20051;-82
2021/04/12 06:43:59;;;;;;;23.25;16.55;;;3.30;99.90;;;;;;4996034;28;20087;-83
2021/04/12 06:46:37;;;;;;;25.00;15.88;;;3.10;99.90;;;;;;5011419;28;20054;-83
2021/04/12 06:49:32;;;;;;;26.38;18.05;;;3.10;99.90;;;;;;4996296;28;20054;-83
2021/04/12 06:52:40;;;;;;;24.35;16.48;;;3.10;99.90;;;;;;4996008;28;20101;-82
2021/04/12 06:55:19;;;;;;;29.95;15.10;;;3.20;99.90;;;;;;4996627;28;20100;-83
2021/04/12 06:58:25;;;;;;;21.05;14.93;;;3.30;99.90;;;;;;5010927;28;20538;-83
2021/04/12 07:01:13;;;;;;;19.58;15.02;;;3.10;99.90;;;;;;4995852;28;20555;-83
2021/04/12 07:03:49;;;;;;;18.38;14.85;;;3.10;99.90;;;;;;5011336;28;20050;-83
2021/04/12 07:06:44;;;;;;;21.17;15.70;;;3.00;99.90;;;;;;4995807;28;20134;-82
2021/04/12 07:09:35;;;;;;;19.92;15.50;;;3.00;99.90;;;;;;4995813;28;20483;-82
2021/04/12 07:12:07;;;;;;;23.25;15.45;;;3.20;99.90;;;;;;4995675;28;20462;-82
2021/04/12 07:15:05;;;;;;;17.40;14.25;;;3.20;99.90;;;;;;5010976;28;20086;-83
2021/04/12 07:17:53;;;;;;;15.43;13.38;;;3.30;99.90;;;;;;4995617;28;20458;-83
2021/04/12 07:20:53;;;;;;;18.42;13.40;;;3.40;99.90;;;;;;4995492;28;20502;-83
2021/04/12 07:23:44;;;;;;;17.58;10.88;;;3.60;99.90;;;;;;4995454;28;20081;-82
2021/04/12 07:26:26;;;;;;;13.90;9.57;;;3.60;99.90;;;;;;5010487;28;20141;-82
2021/04/12 07:29:25;;;;;;;11.80;8.32;;;3.50;99.90;;;;;;4995543;28;20047;-82
2021/04/12 07:32:42;;;;;;;15.45;9.50;;;3.80;99.90;;;;;;4995376;28;20133;-82
2021/04/12 07:35:34;;;;;;;18.27;7.95;;;3.90;99.90;;;;;;4995151;28;20453;-82
2021/04/12 07:38:44;;;;;;;11.85;7.55;;;4.00;99.90;;;;;;4994837;28;20487;-82
2021/04/12 07:41:37;;;;;;;8.65;6.85;;;4.40;99.90;;;;;;4995052;28;20142;-82
2021/04/12 07:44:21;;;;;;;6.47;5.88;;;4.40;99.90;;;;;;4995021;28;20081;-82
2021/04/12 07:47:25;;;;;;;6.47;5.03;;;4.30;99.90;;;;;;4995111;28;20043;-82
2021/04/12 07:50:10;;;;;;;8.50;5.20;;;4.20;99.90;;;;;;4995059;28;20054;-83
2021/04/12 07:53:15;;;;;;;8.80;5.68;;;4.10;99.90;;;;;;4995149;28;20085;-82
2021/04/12 07:56:24;;;;;;;10.47;5.73;;;4.10;99.90;;;;;;4995099;28;20101;-82
2021/04/12 07:59:18;;;;;;;6.18;5.13;;;3.90;99.90;;;;;;4975750;28;20052;-82
2021/04/12 08:02:24;;;;;;;11.57;8.02;;;4.00;99.90;;;;;;4979261;28;20054;-82
2021/04/12 08:05:31;;;;;;;9.95;6.80;;;3.90;99.90;;;;;;4994108;28;20051;-82
2021/04/12 08:08:11;;;;;;;7.68;5.57;;;4.10;99.90;;;;;;4953710;28;20047;-82
2021/04/12 08:11:14;;;;;;;9.90;5.95;;;4.00;99.90;;;;;;4953885;29;20083;-82
2021/04/12 08:14:04;;;;;;;9.57;5.25;;;4.00;99.90;;;;;;4987665;28;20058;-82
2021/04/12 08:17:07;;;;;;;6.80;5.07;;;4.10;99.90;;;;;;4994539;28;20137;-82
2021/04/12 08:19:49;;;;;;;6.60;5.45;;;4.10;99.90;;;;;;4994362;28;20054;-82
2021/04/12 08:22:34;;;;;;;8.88;6.55;;;3.90;99.90;;;;;;4994139;28;20078;-82
2021/04/12 08:25:20;;;;;;;8.10;5.25;;;3.90;99.90;;;;;;4994484;28;20053;-82
2021/04/12 08:28:08;;;;;;;6.10;5.10;;;3.90;99.90;;;;;;4994116;28;20498;-82
2021/04/12 08:30:50;;;;;;;6.15;4.47;;;4.00;99.90;;;;;;4994385;28;20540;-82
2021/04/12 08:33:59;;;;;;;12.23;5.07;;;3.80;99.90;;;;;;4994201;28;20491;-82
2021/04/12 08:36:37;;;;;;;9.20;4.75;;;3.90;99.90;;;;;;5009192;28;20152;-82
2021/04/12 08:39:41;;;;;;;6.10;4.20;;;4.20;99.90;;;;;;5009086;28;20058;-82
2021/04/12 08:42:29;;;;;;;7.07;4.35;;;4.20;99.90;;;;;;5009165;28;20450;-83
2021/04/12 08:45:33;;;;;;;7.05;4.28;;;4.30;99.90;;;;;;5009166;28;20129;-82
2021/04/12 08:48:31;;;;;;;19.30;4.90;;;4.70;99.90;;;;;;5008907;28;20554;-82
2021/04/12 08:51:11;;;;;;;6.95;4.13;;;4.90;99.90;;;;;;5009194;28;20050;-82
2021/04/12 08:53:55;;;;;;;8.55;4.88;;;4.90;99.90;;;;;;5009037;28;20133;-83
2021/04/12 08:56:47;;;;;;;4.07;3.22;;;5.10;99.90;;;;;;5008935;28;20562;-82
2021/04/12 08:59:38;;;;;;;7.10;3.60;;;5.10;99.90;;;;;;4993385;28;20058;-82
2021/04/12 09:02:22;;;;;;;6.43;3.92;;;5.10;99.90;;;;;;5008593;28;20129;-83
2021/04/12 09:05:13;;;;;;;7.28;3.70;;;5.30;99.90;;;;;;5009173;28;20054;-82
2021/04/12 09:08:09;;;;;;;4.65;3.30;;;5.30;99.90;;;;;;5008917;28;20418;-82
2021/04/12 09:11:06;;;;;;;3.53;3.05;;;5.10;99.90;;;;;;5008799;28;20056;-82
2021/04/12 09:13:55;;;;;;;4.78;2.92;;;5.30;99.90;;;;;;4993421;28;20200;-83
2021/04/12 09:16:27;;;;;;;4.90;3.10;;;4.90;99.90;;;;;;5008626;28;20109;-83
2021/04/12 09:19:08;;;;;;;6.75;3.50;;;5.00;99.90;;;;;;5008494;28;20483;-83
2021/04/12 09:22:02;;;;;;;6.97;4.38;;;5.00;99.90;;;;;;4993395;28;20137;-82
2021/04/12 09:24:47;;;;;;;;;;;5.30;99.90;;;;;;4994063;28;20057;-82
2021/04/12 09:27:37;;;;;;;3.78;2.28;;;5.50;99.90;;;;;;4992140;28;20386;-83
2021/04/12 09:30:11;;;;;;;2.83;2.53;;;5.90;99.90;;;;;;5008492;28;20057;-84
2021/04/12 09:33:05;;;;;;;2.38;2.00;;;6.20;99.90;;;;;;5008674;28;20050;-84
2021/04/12 09:35:50;;;;;;;4.63;1.77;;;6.50;99.90;;;;;;4993372;28;20069;-83
2021/04/12 09:38:49;;;;;;;6.07;1.95;;;6.70;99.90;;;;;;4991907;28;20101;-83
2021/04/12 09:41:28;;;;;;;3.90;1.27;;;7.10;99.90;;;;;;4993223;28;20133;-83
2021/04/12 09:44:38;;;;;;;4.22;1.45;;;7.40;99.90;;;;;;4992950;28;20491;-82
2021/04/12 09:47:42;;;;;;;1.05;1.02;;;7.50;99.90;;;;;;4992832;28;20050;-82
2021/04/12 09:50:27;;;;;;;1.75;1.65;;;7.40;99.90;;;;;;5008123;28;20081;-82
2021/04/12 09:53:12;;;;;;;2.90;1.40;;;7.20;99.90;;;;;;5008378;28;20144;-82
2021/04/12 09:56:08;;;;;;;1.75;1.10;;;7.10;99.90;;;;;;5008471;28;20057;-83
2021/04/12 09:59:10;;;;;;;2.88;1.40;;;6.90;99.90;;;;;;4993243;28;20145;-83
2021/04/12 10:02:04;;;;;;;2.30;1.60;;;6.90;99.90;;;;;;5008237;28;20057;-83
2021/04/12 10:05:08;;;;;;;2.92;1.30;;;7.00;99.90;;;;;;5008438;28;20078;-83
2021/04/12 10:07:51;;;;;;;1.85;1.40;;;7.10;99.90;;;;;;4993102;28;20078;-83
2021/04/12 10:10:26;;;;;;;2.10;1.90;;;6.80;99.90;;;;;;5008014;28;20082;-83
2021/04/12 10:13:13;;;;;;;1.92;1.60;;;6.80;99.90;;;;;;4993077;28;20046;-83
2021/04/12 10:16:02;;;;;;;5.80;1.80;;;6.80;99.90;;;;;;5008366;28;20077;-83
2021/04/12 10:18:39;;;;;;;2.28;1.60;;;6.50;99.90;;;;;;4993081;28;20082;-83
2021/04/12 10:21:36;;;;;;;2.95;1.30;;;6.80;99.90;;;;;;4993305;28;20442;-82
2021/04/12 10:24:16;;;;;;;4.38;1.10;;;7.20;99.90;;;;;;4993048;28;20050;-82
2021/04/12 10:26:50;;;;;;;3.47;1.33;;;7.40;99.90;;;;;;4992803;28;20410;-82
2021/04/12 10:29:39;;;;;;;3.47;1.20;;;7.60;99.90;;;;;;5010507;28;20410;-83
2021/04/12 10:32:20;;;;;;;3.08;1.15;;;7.70;99.90;;;;;;4989876;28;20129;-82
2021/04/12 10:34:56;;;;;;;2.47;0.88;;;8.20;99.90;;;;;;5011555;28;20051;-82
2021/04/12 10:37:42;;;;;;;4.38;1.23;;;8.10;99.90;;;;;;5011499;28;20129;-82
2021/04/12 10:40:43;;;;;;;2.85;0.90;;;8.60;99.90;;;;;;5011303;28;20077;-82
2021/04/12 10:43:44;;;;;;;6.63;0.85;;;8.90;99.90;;;;;;4995130;28;20566;-82
2021/04/12 10:46:21;;;;;;;3.53;0.80;;;9.20;99.90;;;;;;5011075;28;20228;-82
2021/04/12 10:48:55;;;;;;;4.18;1.33;;;9.00;99.90;;;;;;5011216;28;20491;-83
2021/04/12 10:51:33;;;;;;;8.93;1.55;;;8.90;99.90;;;;;;5010986;28;20100;-82
2021/04/12 10:54:36;;;;;;;6.78;1.13;;;8.00;99.90;;;;;;4996104;28;20053;-82
2021/04/12 10:57:05;;;;;;;2.25;1.30;;;8.00;99.90;;;;;;5011236;28;20104;-82
2021/04/12 10:59:52;;;;;;;3.60;1.25;;;8.90;99.90;;;;;;5010884;28;20457;-82
2021/04/12 11:02:49;;;;;;;5.00;1.15;;;9.20;99.90;;;;;;5010755;28;20069;-82
2021/04/12 11:05:19;;;;;;;1.20;1.10;;;9.20;99.90;;;;;;5010996;28;20052;-82
2021/04/12 11:07:51;;;;;;;8.23;1.90;;;8.80;99.90;;;;;;4996354;28;20081;-82
2021/04/12 11:10:37;;;;;;;1.77;1.10;;;8.80;99.90;;;;;;5010835;28;20070;-82
2021/04/12 11:13:11;;;;;;;2.35;1.45;;;8.70;99.90;;;;;;4995853;28;20133;-83
2021/04/12 11:16:03;;;;;;;3.20;1.83;;;9.30;99.90;;;;;;5010849;28;20050;-82
2021/04/12 11:18:42;;;;;;;1.95;0.90;;;9.10;99.90;;;;;;5010674;28;20149;-82
2021/04/12 11:21:23;;;;;;;3.88;1.33;;;9.50;99.90;;;;;;5010597;28;20501;-82
2021/04/12 11:24:04;;;;;;;6.82;2.00;;;9.50;99.90;;;;;;4995585;28;20050;-82
2021/04/12 11:26:58;;;;;;;5.05;1.33;;;9.50;99.90;;;;;;5010768;28;20054;-82
2021/04/12 11:29:27;;;;;;;;;;;9.60;99.90;;;;;;4995935;28;20133;-83
2021/04/12 11:32:14;;;;;;;15.45;2.13;;;9.50;99.90;;;;;;4994171;28;19926;-82
2021/04/12 11:34:55;;;;;;;2.05;1.30;;;9.10;99.90;;;;;;4995648;28;20406;-82
2021/04/12 11:37:36;;;;;;;2.15;1.30;;;9.00;99.90;;;;;;4995149;28;20100;-82
2021/04/12 11:40:15;;;;;;;3.22;1.40;;;8.60;99.90;;;;;;5009360;28;20085;-82
2021/04/12 11:42:53;;;;;;;1.48;1.30;;;8.00;99.90;;;;;;5010394;28;20052;-83
2021/04/12 11:45:31;;;;;;;2.92;1.48;;;7.80;99.90;;;;;;5010226;28;20426;-82
2021/04/12 11:48:30;;;;;;;9.38;2.03;;;7.60;99.90;;;;;;4995052;28;20152;-82
2021/04/12 11:51:10;;;;;;;3.42;1.48;;;7.70;99.90;;;;;;4993108;28;20057;-82
2021/04/12 11:53:58;;;;;;;2.60;1.40;;;7.70;99.90;;;;;;5010264;28;20050;-82
2021/04/12 11:56:46;;;;;;;5.82;1.83;;;7.80;99.90;;;;;;5009876;28;20065;-83
2021/04/12 11:59:47;;;;;;;4.22;1.60;;;8.00;99.90;;;;;;4994569;28;20050;-82
2021/04/12 12:02:49;;;;;;;1.38;1.15;;;8.00;99.90;;;;;;4994310;28;20054;-82
2021/04/12 12:05:28;;;;;;;5.80;2.03;;;7.80;99.90;;;;;;4994882;28;20057;-82
2021/04/12 12:08:09;;;;;;;2.05;1.35;;;7.80;99.90;;;;;;5009639;28;20042;-81
2021/04/12 12:11:22;;;;;;;1.40;1.30;;;7.30;99.90;;;;;;4994722;28;20054;-82
2021/04/12 12:13:56;;;;;;;2.33;1.33;;;6.80;99.90;;;;;;4987639;28;20084;-82
2021/04/12 12:16:25;;;;;;;3.08;1.20;;;6.50;99.90;;;;;;5009704;28;20145;-82
2021/04/12 12:19:04;;;;;;;12.90;2.50;;;6.20;99.90;;;;;;4994353;28;20167;-82
2021/04/12 12:22:03;;;;;;;3.28;1.40;;;6.10;99.90;;;;;;5009744;28;20133;-82
2021/04/12 12:24:43;;;;;;;7.53;1.67;;;6.20;99.90;;;;;;5009722;28;20050;-83
2021/04/12 12:27:23;;;;;;;26.40;3.13;;;6.70;99.90;;;;;;5009456;28;20133;-82
2021/04/12 12:29:55;;;;;;;1.95;1.40;;;7.10;99.90;;;;;;5009484;28;20046;-82
2021/04/12 12:32:34;;;;;;;2.75;1.40;;;7.30;99.90;;;;;;5009143;28;20138;-82
2021/04/12 12:35:14;;;;;;;4.00;1.02;;;7.40;99.90;;;;;;4994362;28;20054;-83
2021/04/12 12:38:08;;;;;;;6.90;1.48;;;7.80;99.90;;;;;;5009354;28;20407;-82
2021/04/12 12:40:45;;;;;;;5.90;1.58;;;8.20;99.90;;;;;;5009486;28;20060;-83
2021/04/12 12:43:23;;;;;;;5.15;1.30;;;8.30;99.90;;;;;;4994003;28;20113;-82
2021/04/12 12:45:50;;;;;;;3.72;1.33;;;8.10;99.90;;;;;;5009480;28;20053;-82
2021/04/12 12:48:26;;;;;;;2.33;1.05;;;8.00;99.90;;;;;;5008808;28;20073;-83
2021/04/12 12:51:09;;;;;;;2.25;0.95;;;8.00;99.90;;;;;;4994001;28;20051;-82
2021/04/12 12:53:39;;;;;;;10.75;1.45;;;8.00;99.90;;;;;;5008853;28;20092;-82
2021/04/12 12:56:20;;;;;;;4.55;1.00;;;7.90;99.90;;;;;;5008785;28;20153;-82
2021/04/12 12:59:01;;;;;;;5.95;1.40;;;7.80;99.90;;;;;;5009031;28;20524;-82
2021/04/12 13:01:34;;;;;;;1.95;1.08;;;7.80;99.90;;;;;;4993352;28;20070;-82
2021/04/12 13:04:14;;;;;;;2.25;1.33;;;7.60;99.90;;;;;;5008677;28;20078;-82
2021/04/12 13:06:42;;;;;;;1.98;1.42;;;7.50;99.90;;;;;;4993525;28;20480;-82
2021/04/12 13:09:26;;;;;;;4.32;1.42;;;7.30;99.90;;;;;;5008256;28;20054;-81
2021/04/12 13:11:58;;;;;;;4.72;1.30;;;7.10;99.90;;;;;;4993343;28;20429;-82
2021/04/12 13:14:27;;;;;;;5.85;1.17;;;7.10;99.90;;;;;;4993750;28;20566;-82
2021/04/12 13:16:55;;;;;;;4.07;1.42;;;7.00;99.90;;;;;;4993645;28;20137;-82
2021/04/12 13:19:23;;;;;;;10.35;1.15;;;7.20;99.90;;;;;;4993545;28;20148;-83
2021/04/12 13:22:02;;;;;;;5.53;1.35;;;7.40;99.90;;;;;;5008446;28;20590;-81
2021/04/12 13:24:33;;;;;;;6.47;1.67;;;7.60;99.90;;;;;;4993391;28;20066;-83
2021/04/12 13:27:21;;;;;;;4.07;1.88;;;8.00;99.90;;;;;;5006363;28;20157;-83
2021/04/12 13:29:59;;;;;;;3.15;1.30;;;8.00;99.90;;;;;;4993467;28;20052;-83
2021/04/12 13:32:34;;;;;;;4.32;1.63;;;8.00;99.90;;;;;;4993291;28;20531;-83
2021/04/12 13:35:17;;;;;;;1.60;0.90;;;8.00;99.90;;;;;;4993070;28;20057;-83
2021/04/12 13:38:02;;;;;;;2.70;1.23;;;7.90;99.90;;;;;;5008256;28;20086;-82
2021/04/12 13:40:39;;;;;;;1.38;1.02;;;8.10;99.90;;;;;;5008276;28;20054;-83
2021/04/12 13:43:08;;;;;;;3.55;1.60;;;8.10;99.90;;;;;;4993148;28;20129;-82
2021/04/12 13:45:43;;;;;;;4.90;1.20;;;8.20;99.90;;;;;;4993519;28;20050;-82
2021/04/12 13:48:18;;;;;;;3.90;1.15;;;8.40;99.90;;;;;;4992959;28;20050;-83
2021/04/12 13:50:57;;;;;;;9.20;1.58;;;8.30;99.90;;;;;;4993200;28;20081;-83
2021/04/12 13:53:44;;;;;;;2.45;0.90;;;8.40;99.90;;;;;;5008096;28;20058;-82
2021/04/12 13:56:24;;;;;;;8.30;1.90;;;8.40;99.90;;;;;;5007941;28;20133;-83
2021/04/12 13:59:09;;;;;;;5.25;1.73;;;8.40;99.90;;;;;;5007906;28;20141;-82
2021/04/12 14:02:01;;;;;;;0.70;0.70;;;8.60;99.90;;;;;;4992682;28;20134;-82
2021/04/12 14:04:41;;;;;;;2.25;0.80;;;8.90;99.90;;;;;;4996023;28;20082;-82
2021/04/12 14:07:16;;;;;;;7.15;1.40;;;8.90;99.90;;;;;;4996541;28;20050;-82
2021/04/12 14:09:49;;;;;;;1.08;0.80;;;8.90;99.90;;;;;;5011738;28;20054;-83
2021/04/12 14:12:21;;;;;;;8.13;1.23;;;9.20;99.90;;;;;;4996555;28;20086;-82
2021/04/12 14:15:12;;;;;;;6.88;1.00;;;9.70;99.90;;;;;;5011669;28;20050;-83
2021/04/12 14:17:42;;;;;;;2.45;1.05;;;10.00;98.20;;;;;;5007031;28;20096;-82
2021/04/12 14:20:28;;;;;;;4.72;1.20;;;10.00;99.90;;;;;;5010958;28;20508;-83
2021/04/12 14:22:58;;;;;;;3.05;0.80;;;9.90;98.80;;;;;;4996585;28;20050;-83
2021/04/12 14:25:39;;;;;;;2.92;1.00;;;9.80;97.50;;;;;;4996540;28;20120;-83
2021/04/12 14:28:15;;;;;;;3.17;0.90;;;9.60;99.90;;;;;;4995996;28;20077;-83
2021/04/12 14:30:58;;;;;;;2.45;0.85;;;9.60;98.30;;;;;;5011385;28;20105;-83
2021/04/12 14:33:29;;;;;;;2.78;1.00;;;9.60;99.90;;;;;;5011168;28;20057;-83